sensor_id;sensor_type;location;lat;lon;timestamp;P1;durP1;ratioP1;P2;durP2;ratioP2
59474;SDS011;45288;51.136;16.928;2024-01-30T00:00:39;32.55;;;12.27;;
59474;SDS011;45288;51.136;16.928;2024-01-30T00:03:30;32.80;;;13.07;;
59474;SDS011;45288;51.136;16.928;2024-01-30T00:06:09;34.15;;;13.60;;
59474;SDS011;45288;51.136;16.928;2024-01-30T00:08:59;34.25;;;13.50;;
59474;SDS011;45288;51.136;16.928;2024-01-30T00:11:38;31.25;;;12.75;;
59474;SDS011;45288;51.136;16.928;2024-01-30T00:14:24;28.88;;;12.48;;
59474;SDS011;45288;51.136;16.928;2024-01-30T00:17:05;30.08;;;12.88;;
59474;SDS011;45288;51.136;16.928;2024-01-30T00:19:51;29.60;;;12.50;;
59474;SDS011;45288;51.136;16.928;2024-01-30T00:22:32;28.98;;;12.63;;
59474;SDS011;45288;51.136;16.928;2024-01-30T00:25:24;28.77;;;11.93;;
59474;SDS011;45288;51.136;16.928;2024-01-30T00:28:04;32.67;;;13.23;;
59474;SDS011;45288;51.136;16.928;2024-01-30T00:30:54;33.70;;;12.38;;
59474;SDS011;45288;51.136;16.928;2024-01-30T00:33:35;29.23;;;12.02;;
59474;SDS011;45288;51.136;16.928;2024-01-30T00:36:23;28.42;;;11.98;;
59474;SDS011;45288;51.136;16.928;2024-01-30T00:39:02;26.52;;;11.45;;
59474;SDS011;45288;51.136;16.928;2024-01-30T00:41:52;30.83;;;11.93;;
59474;SDS011;45288;51.136;16.928;2024-01-30T00:44:36;29.23;;;11.57;;
59474;SDS011;45288;51.136;16.928;2024-01-30T00:47:22;29.83;;;11.50;;
59474;SDS011;45288;51.136;16.928;2024-01-30T00:50:03;28.80;;;11.30;;
59474;SDS011;45288;51.136;16.928;2024-01-30T00:52:49;27.95;;;11.32;;
59474;SDS011;45288;51.136;16.928;2024-01-30T00:55:30;24.52;;;10.98;;
59474;SDS011;45288;51.136;16.928;2024-01-30T00:58:19;30.65;;;11.55;;
59474;SDS011;45288;51.136;16.928;2024-01-30T01:01:01;26.00;;;11.27;;
59474;SDS011;45288;51.136;16.928;2024-01-30T01:03:49;28.50;;;11.45;;
59474;SDS011;45288;51.136;16.928;2024-01-30T01:06:28;27.52;;;11.23;;
59474;SDS011;45288;51.136;16.928;2024-01-30T01:09:14;30.65;;;12.25;;
59474;SDS011;45288;51.136;16.928;2024-01-30T01:11:55;35.15;;;12.95;;
59474;SDS011;45288;51.136;16.928;2024-01-30T01:14:45;31.20;;;12.32;;
59474;SDS011;45288;51.136;16.928;2024-01-30T01:17:26;35.10;;;13.68;;
59474;SDS011;45288;51.136;16.928;2024-01-30T01:20:12;29.88;;;12.55;;
59474;SDS011;45288;51.136;16.928;2024-01-30T01:22:53;37.00;;;13.57;;
59474;SDS011;45288;51.136;16.928;2024-01-30T01:25:39;30.40;;;11.98;;
59474;SDS011;45288;51.136;16.928;2024-01-30T01:28:20;33.17;;;12.23;;
59474;SDS011;45288;51.136;16.928;2024-01-30T01:31:06;33.63;;;12.38;;
59474;SDS011;45288;51.136;16.928;2024-01-30T01:33:59;34.13;;;13.10;;
59474;SDS011;45288;51.136;16.928;2024-01-30T01:36:31;28.67;;;12.65;;
59474;SDS011;45288;51.136;16.928;2024-01-30T01:39:24;30.98;;;12.13;;
59474;SDS011;45288;51.136;16.928;2024-01-30T01:41:58;30.97;;;12.70;;
59474;SDS011;45288;51.136;16.928;2024-01-30T01:44:51;28.40;;;12.30;;
59474;SDS011;45288;51.136;16.928;2024-01-30T01:47:25;29.45;;;12.20;;
59474;SDS011;45288;51.136;16.928;2024-01-30T01:50:20;27.63;;;11.80;;
59474;SDS011;45288;51.136;16.928;2024-01-30T01:52:55;29.95;;;12.20;;
59474;SDS011;45288;51.136;16.928;2024-01-30T01:55:48;27.90;;;11.88;;
59474;SDS011;45288;51.136;16.928;2024-01-30T01:58:22;28.60;;;12.27;;
59474;SDS011;45288;51.136;16.928;2024-01-30T02:01:19;27.90;;;11.63;;
59474;SDS011;45288;51.136;16.928;2024-01-30T02:03:52;31.15;;;12.13;;
59474;SDS011;45288;51.136;16.928;2024-01-30T02:06:46;29.58;;;11.75;;
59474;SDS011;45288;51.136;16.928;2024-01-30T02:09:18;28.13;;;11.27;;
59474;SDS011;45288;51.136;16.928;2024-01-30T02:12:13;31.37;;;12.13;;
59474;SDS011;45288;51.136;16.928;2024-01-30T02:14:48;27.70;;;11.83;;
59474;SDS011;45288;51.136;16.928;2024-01-30T02:17:43;24.10;;;10.50;;
59474;SDS011;45288;51.136;16.928;2024-01-30T02:20:17;25.42;;;10.75;;
59474;SDS011;45288;51.136;16.928;2024-01-30T02:23:13;32.13;;;12.20;;
59474;SDS011;45288;51.136;16.928;2024-01-30T02:25:53;29.83;;;10.80;;
59474;SDS011;45288;51.136;16.928;2024-01-30T02:28:51;24.77;;;10.75;;
59474;SDS011;45288;51.136;16.928;2024-01-30T02:31:24;25.33;;;11.18;;
59474;SDS011;45288;51.136;16.928;2024-01-30T02:34:23;27.88;;;11.38;;
59474;SDS011;45288;51.136;16.928;2024-01-30T02:36:57;27.40;;;11.20;;
59474;SDS011;45288;51.136;16.928;2024-01-30T02:39:52;24.63;;;11.23;;
59474;SDS011;45288;51.136;16.928;2024-01-30T02:42:24;26.73;;;11.27;;
59474;SDS011;45288;51.136;16.928;2024-01-30T02:45:19;29.35;;;11.63;;
59474;SDS011;45288;51.136;16.928;2024-01-30T02:47:53;27.48;;;12.07;;
59474;SDS011;45288;51.136;16.928;2024-01-30T02:50:48;27.52;;;11.73;;
59474;SDS011;45288;51.136;16.928;2024-01-30T02:53:22;27.30;;;11.73;;
59474;SDS011;45288;51.136;16.928;2024-01-30T02:56:15;32.17;;;12.25;;
59474;SDS011;45288;51.136;16.928;2024-01-30T02:58:49;28.27;;;12.00;;
59474;SDS011;45288;51.136;16.928;2024-01-30T03:01:43;27.80;;;12.50;;
59474;SDS011;45288;51.136;16.928;2024-01-30T03:04:17;31.40;;;12.57;;
59474;SDS011;45288;51.136;16.928;2024-01-30T03:07:11;31.58;;;12.93;;
59474;SDS011;45288;51.136;16.928;2024-01-30T03:09:43;28.08;;;12.25;;
59474;SDS011;45288;51.136;16.928;2024-01-30T03:12:41;31.35;;;13.18;;
59474;SDS011;45288;51.136;16.928;2024-01-30T03:15:16;29.80;;;13.35;;
59474;SDS011;45288;51.136;16.928;2024-01-30T03:18:12;36.92;;;14.23;;
59474;SDS011;45288;51.136;16.928;2024-01-30T03:20:46;28.03;;;12.70;;
59474;SDS011;45288;51.136;16.928;2024-01-30T03:23:39;33.53;;;13.97;;
59474;SDS011;45288;51.136;16.928;2024-01-30T03:26:13;35.25;;;14.07;;
59474;SDS011;45288;51.136;16.928;2024-01-30T03:29:11;31.83;;;13.98;;
59474;SDS011;45288;51.136;16.928;2024-01-30T03:31:43;31.25;;;14.25;;
59474;SDS011;45288;51.136;16.928;2024-01-30T03:34:38;35.38;;;14.60;;
59474;SDS011;45288;51.136;16.928;2024-01-30T03:37:13;36.05;;;14.73;;
59474;SDS011;45288;51.136;16.928;2024-01-30T03:40:07;35.58;;;15.45;;
59474;SDS011;45288;51.136;16.928;2024-01-30T03:42:41;32.70;;;14.20;;
59474;SDS011;45288;51.136;16.928;2024-01-30T03:45:35;31.90;;;14.43;;
59474;SDS011;45288;51.136;16.928;2024-01-30T03:48:11;39.57;;;15.20;;
59474;SDS011;45288;51.136;16.928;2024-01-30T03:51:05;40.13;;;16.52;;
59474;SDS011;45288;51.136;16.928;2024-01-30T03:53:43;36.83;;;15.15;;
59474;SDS011;45288;51.136;16.928;2024-01-30T03:56:37;33.90;;;14.63;;
59474;SDS011;45288;51.136;16.928;2024-01-30T03:59:09;36.70;;;15.80;;
59474;SDS011;45288;51.136;16.928;2024-01-30T04:02:04;36.47;;;16.27;;
59474;SDS011;45288;51.136;16.928;2024-01-30T04:04:36;37.13;;;16.15;;
59474;SDS011;45288;51.136;16.928;2024-01-30T04:07:31;34.50;;;14.57;;
59474;SDS011;45288;51.136;16.928;2024-01-30T04:10:07;27.98;;;12.90;;
59474;SDS011;45288;51.136;16.928;2024-01-30T04:13:02;32.30;;;14.18;;
59474;SDS011;45288;51.136;16.928;2024-01-30T04:15:34;30.33;;;13.57;;
59474;SDS011;45288;51.136;16.928;2024-01-30T04:18:27;33.28;;;13.32;;
59474;SDS011;45288;51.136;16.928;2024-01-30T04:21:05;32.75;;;13.15;;
59474;SDS011;45288;51.136;16.928;2024-01-30T04:24:02;28.50;;;12.43;;
59474;SDS011;45288;51.136;16.928;2024-01-30T04:26:34;28.10;;;12.55;;
59474;SDS011;45288;51.136;16.928;2024-01-30T04:29:29;31.52;;;12.90;;
59474;SDS011;45288;51.136;16.928;2024-01-30T04:32:01;36.23;;;14.57;;
59474;SDS011;45288;51.136;16.928;2024-01-30T04:34:54;37.20;;;15.20;;
59474;SDS011;45288;51.136;16.928;2024-01-30T04:37:26;34.05;;;15.25;;
59474;SDS011;45288;51.136;16.928;2024-01-30T04:40:21;37.15;;;16.80;;
59474;SDS011;45288;51.136;16.928;2024-01-30T04:42:53;37.42;;;17.00;;
59474;SDS011;45288;51.136;16.928;2024-01-30T04:45:49;33.55;;;15.23;;
59474;SDS011;45288;51.136;16.928;2024-01-30T04:48:21;37.55;;;17.60;;
59474;SDS011;45288;51.136;16.928;2024-01-30T04:51:14;43.20;;;18.48;;
59474;SDS011;45288;51.136;16.928;2024-01-30T04:53:46;34.03;;;15.48;;
59474;SDS011;45288;51.136;16.928;2024-01-30T04:56:39;41.03;;;16.02;;
59474;SDS011;45288;51.136;16.928;2024-01-30T04:59:13;38.10;;;14.93;;
59474;SDS011;45288;51.136;16.928;2024-01-30T05:02:06;32.75;;;13.40;;
59474;SDS011;45288;51.136;16.928;2024-01-30T05:04:38;30.55;;;12.93;;
59474;SDS011;45288;51.136;16.928;2024-01-30T05:07:35;36.33;;;14.98;;
59474;SDS011;45288;51.136;16.928;2024-01-30T05:10:10;35.00;;;15.23;;
59474;SDS011;45288;51.136;16.928;2024-01-30T05:13:03;34.03;;;14.50;;
59474;SDS011;45288;51.136;16.928;2024-01-30T05:15:39;34.03;;;14.77;;
59474;SDS011;45288;51.136;16.928;2024-01-30T05:18:34;33.90;;;15.48;;
59474;SDS011;45288;51.136;16.928;2024-01-30T05:21:08;37.30;;;15.77;;
59474;SDS011;45288;51.136;16.928;2024-01-30T05:24:02;46.58;;;19.20;;
59474;SDS011;45288;51.136;16.928;2024-01-30T05:26:36;44.88;;;17.65;;
59474;SDS011;45288;51.136;16.928;2024-01-30T05:29:29;54.42;;;22.60;;
59474;SDS011;45288;51.136;16.928;2024-01-30T05:32:02;51.05;;;22.67;;
59474;SDS011;45288;51.136;16.928;2024-01-30T05:34:56;51.33;;;21.70;;
59474;SDS011;45288;51.136;16.928;2024-01-30T05:37:28;49.95;;;19.85;;
59474;SDS011;45288;51.136;16.928;2024-01-30T05:40:21;49.05;;;18.67;;
59474;SDS011;45288;51.136;16.928;2024-01-30T05:42:53;56.75;;;20.42;;
59474;SDS011;45288;51.136;16.928;2024-01-30T05:45:46;51.93;;;20.27;;
59474;SDS011;45288;51.136;16.928;2024-01-30T05:48:18;58.80;;;22.77;;
59474;SDS011;45288;51.136;16.928;2024-01-30T05:51:11;62.42;;;22.98;;
59474;SDS011;45288;51.136;16.928;2024-01-30T05:53:43;68.43;;;23.50;;
59474;SDS011;45288;51.136;16.928;2024-01-30T05:56:38;67.22;;;24.40;;
59474;SDS011;45288;51.136;16.928;2024-01-30T05:59:14;67.85;;;26.55;;
59474;SDS011;45288;51.136;16.928;2024-01-30T06:02:12;78.38;;;25.80;;
59474;SDS011;45288;51.136;16.928;2024-01-30T06:04:46;49.60;;;19.40;;
59474;SDS011;45288;51.136;16.928;2024-01-30T06:07:39;57.83;;;20.90;;
59474;SDS011;45288;51.136;16.928;2024-01-30T06:10:13;48.03;;;17.33;;
59474;SDS011;45288;51.136;16.928;2024-01-30T06:13:06;46.50;;;17.02;;
59474;SDS011;45288;51.136;16.928;2024-01-30T06:15:44;37.72;;;15.95;;
59474;SDS011;45288;51.136;16.928;2024-01-30T06:18:37;43.65;;;17.75;;
59474;SDS011;45288;51.136;16.928;2024-01-30T06:21:09;44.00;;;17.27;;
59474;SDS011;45288;51.136;16.928;2024-01-30T06:24:04;51.38;;;18.85;;
59474;SDS011;45288;51.136;16.928;2024-01-30T06:26:36;50.88;;;18.73;;
59474;SDS011;45288;51.136;16.928;2024-01-30T06:29:29;48.08;;;18.88;;
59474;SDS011;45288;51.136;16.928;2024-01-30T06:32:03;43.67;;;17.90;;
59474;SDS011;45288;51.136;16.928;2024-01-30T06:35:03;44.40;;;17.97;;
59474;SDS011;45288;51.136;16.928;2024-01-30T06:37:36;54.58;;;21.55;;
59474;SDS011;45288;51.136;16.928;2024-01-30T06:40:29;47.67;;;18.60;;
59474;SDS011;45288;51.136;16.928;2024-01-30T06:43:01;43.80;;;18.50;;
59474;SDS011;45288;51.136;16.928;2024-01-30T06:45:56;40.20;;;17.83;;
59474;SDS011;45288;51.136;16.928;2024-01-30T06:48:30;38.70;;;16.75;;
59474;SDS011;45288;51.136;16.928;2024-01-30T06:51:27;43.20;;;17.05;;
59474;SDS011;45288;51.136;16.928;2024-01-30T06:54:01;51.53;;;17.77;;
59474;SDS011;45288;51.136;16.928;2024-01-30T06:56:56;40.35;;;17.00;;
59474;SDS011;45288;51.136;16.928;2024-01-30T06:59:32;47.63;;;17.13;;
59474;SDS011;45288;51.136;16.928;2024-01-30T07:02:29;45.58;;;17.08;;
59474;SDS011;45288;51.136;16.928;2024-01-30T07:05:02;40.28;;;15.95;;
59474;SDS011;45288;51.136;16.928;2024-01-30T07:07:55;39.28;;;16.30;;
59474;SDS011;45288;51.136;16.928;2024-01-30T07:10:27;38.65;;;16.15;;
59474;SDS011;45288;51.136;16.928;2024-01-30T07:13:20;35.72;;;15.43;;
59474;SDS011;45288;51.136;16.928;2024-01-30T07:15:54;39.67;;;15.20;;
59474;SDS011;45288;51.136;16.928;2024-01-30T07:18:47;35.45;;;14.95;;
59474;SDS011;45288;51.136;16.928;2024-01-30T07:21:19;40.70;;;14.85;;
59474;SDS011;45288;51.136;16.928;2024-01-30T07:24:13;33.95;;;14.43;;
59474;SDS011;45288;51.136;16.928;2024-01-30T07:26:45;36.22;;;14.82;;
59474;SDS011;45288;51.136;16.928;2024-01-30T07:29:38;30.58;;;13.63;;
59474;SDS011;45288;51.136;16.928;2024-01-30T07:32:10;37.33;;;14.75;;
59474;SDS011;45288;51.136;16.928;2024-01-30T07:35:04;40.90;;;16.17;;
59474;SDS011;45288;51.136;16.928;2024-01-30T07:37:36;33.77;;;14.63;;
59474;SDS011;45288;51.136;16.928;2024-01-30T07:40:30;35.03;;;15.07;;
59474;SDS011;45288;51.136;16.928;2024-01-30T07:43:02;37.63;;;15.50;;
59474;SDS011;45288;51.136;16.928;2024-01-30T07:45:55;36.65;;;14.77;;
59474;SDS011;45288;51.136;16.928;2024-01-30T07:48:27;36.45;;;14.85;;
59474;SDS011;45288;51.136;16.928;2024-01-30T07:51:20;38.53;;;15.30;;
59474;SDS011;45288;51.136;16.928;2024-01-30T07:53:52;34.90;;;14.35;;
59474;SDS011;45288;51.136;16.928;2024-01-30T07:56:47;32.67;;;13.88;;
59474;SDS011;45288;51.136;16.928;2024-01-30T07:59:21;41.63;;;14.75;;
59474;SDS011;45288;51.136;16.928;2024-01-30T08:02:14;40.22;;;14.65;;
59474;SDS011;45288;51.136;16.928;2024-01-30T08:04:48;45.42;;;16.13;;
59474;SDS011;45288;51.136;16.928;2024-01-30T08:07:41;40.75;;;14.27;;
59474;SDS011;45288;51.136;16.928;2024-01-30T08:10:17;34.53;;;13.85;;
59474;SDS011;45288;51.136;16.928;2024-01-30T08:13:10;40.35;;;14.95;;
59474;SDS011;45288;51.136;16.928;2024-01-30T08:15:44;36.50;;;13.57;;
59474;SDS011;45288;51.136;16.928;2024-01-30T08:18:37;37.20;;;13.97;;
59474;SDS011;45288;51.136;16.928;2024-01-30T08:21:11;36.83;;;14.02;;
59474;SDS011;45288;51.136;16.928;2024-01-30T08:24:04;36.05;;;13.77;;
59474;SDS011;45288;51.136;16.928;2024-01-30T08:26:44;35.63;;;13.48;;
59474;SDS011;45288;51.136;16.928;2024-01-30T08:29:32;31.10;;;12.98;;
59474;SDS011;45288;51.136;16.928;2024-01-30T08:32:16;32.42;;;12.65;;
59474;SDS011;45288;51.136;16.928;2024-01-30T08:35:02;34.28;;;13.63;;
59474;SDS011;45288;51.136;16.928;2024-01-30T08:37:42;33.13;;;12.77;;
59474;SDS011;45288;51.136;16.928;2024-01-30T08:40:29;35.55;;;13.15;;
59474;SDS011;45288;51.136;16.928;2024-01-30T08:43:09;33.92;;;12.82;;
59474;SDS011;45288;51.136;16.928;2024-01-30T08:45:55;31.50;;;12.20;;
59474;SDS011;45288;51.136;16.928;2024-01-30T08:48:37;32.30;;;13.75;;
59474;SDS011;45288;51.136;16.928;2024-01-30T08:51:23;35.00;;;13.90;;
59474;SDS011;45288;51.136;16.928;2024-01-30T08:54:02;34.00;;;12.77;;
59474;SDS011;45288;51.136;16.928;2024-01-30T08:56:48;32.67;;;12.30;;
59474;SDS011;45288;51.136;16.928;2024-01-30T08:59:27;31.60;;;12.07;;
59474;SDS011;45288;51.136;16.928;2024-01-30T09:02:13;29.75;;;11.68;;
59474;SDS011;45288;51.136;16.928;2024-01-30T09:04:54;28.92;;;11.20;;
59474;SDS011;45288;51.136;16.928;2024-01-30T09:07:42;29.40;;;11.18;;
59474;SDS011;45288;51.136;16.928;2024-01-30T09:10:26;27.13;;;10.95;;
59474;SDS011;45288;51.136;16.928;2024-01-30T09:13:12;27.13;;;10.50;;
59474;SDS011;45288;51.136;16.928;2024-01-30T09:15:54;28.60;;;10.57;;
59474;SDS011;45288;51.136;16.928;2024-01-30T09:18:40;27.07;;;10.53;;
59474;SDS011;45288;51.136;16.928;2024-01-30T09:21:19;30.48;;;11.07;;
59474;SDS011;45288;51.136;16.928;2024-01-30T09:24:05;29.97;;;11.03;;
59474;SDS011;45288;51.136;16.928;2024-01-30T09:26:46;29.27;;;11.40;;
59474;SDS011;45288;51.136;16.928;2024-01-30T09:29:34;27.73;;;11.00;;
59474;SDS011;45288;51.136;16.928;2024-01-30T09:32:21;26.98;;;10.68;;
59474;SDS011;45288;51.136;16.928;2024-01-30T09:35:16;29.50;;;11.00;;
59474;SDS011;45288;51.136;16.928;2024-01-30T09:37:48;27.38;;;10.40;;
59474;SDS011;45288;51.136;16.928;2024-01-30T09:40:44;34.10;;;11.52;;
59474;SDS011;45288;51.136;16.928;2024-01-30T09:43:24;24.53;;;10.30;;
59474;SDS011;45288;51.136;16.928;2024-01-30T09:46:23;24.45;;;9.63;;
59474;SDS011;45288;51.136;16.928;2024-01-30T09:49:01;25.98;;;10.13;;
59474;SDS011;45288;51.136;16.928;2024-01-30T09:51:54;26.67;;;9.30;;
59474;SDS011;45288;51.136;16.928;2024-01-30T09:54:31;28.50;;;9.52;;
59474;SDS011;45288;51.136;16.928;2024-01-30T09:57:23;30.02;;;9.68;;
59474;SDS011;45288;51.136;16.928;2024-01-30T10:00:04;25.23;;;9.10;;
59474;SDS011;45288;51.136;16.928;2024-01-30T10:02:57;23.00;;;8.40;;
59474;SDS011;45288;51.136;16.928;2024-01-30T10:05:29;26.50;;;9.00;;
59474;SDS011;45288;51.136;16.928;2024-01-30T10:08:23;22.63;;;8.45;;
59474;SDS011;45288;51.136;16.928;2024-01-30T10:10:57;23.58;;;8.13;;
59474;SDS011;45288;51.136;16.928;2024-01-30T10:13:50;24.50;;;8.45;;
59474;SDS011;45288;51.136;16.928;2024-01-30T10:16:24;27.10;;;9.05;;
59474;SDS011;45288;51.136;16.928;2024-01-30T10:19:19;29.88;;;9.57;;
59474;SDS011;45288;51.136;16.928;2024-01-30T10:21:53;25.57;;;9.07;;
59474;SDS011;45288;51.136;16.928;2024-01-30T10:24:46;24.13;;;8.68;;
59474;SDS011;45288;51.136;16.928;2024-01-30T10:27:29;25.83;;;9.00;;
59474;SDS011;45288;51.136;16.928;2024-01-30T10:30:16;25.27;;;8.55;;
59474;SDS011;45288;51.136;16.928;2024-01-30T10:33:02;20.70;;;7.45;;
59474;SDS011;45288;51.136;16.928;2024-01-30T10:36:02;19.30;;;7.50;;
59474;SDS011;45288;51.136;16.928;2024-01-30T10:38:35;24.00;;;7.93;;
59474;SDS011;45288;51.136;16.928;2024-01-30T10:41:34;26.30;;;7.78;;
59474;SDS011;45288;51.136;16.928;2024-01-30T10:44:18;25.33;;;7.50;;
59474;SDS011;45288;51.136;16.928;2024-01-30T10:47:12;23.42;;;6.97;;
59474;SDS011;45288;51.136;16.928;2024-01-30T10:49:49;22.07;;;6.93;;
59474;SDS011;45288;51.136;16.928;2024-01-30T10:52:44;25.38;;;7.93;;
59474;SDS011;45288;51.136;16.928;2024-01-30T10:55:20;32.28;;;8.40;;
59474;SDS011;45288;51.136;16.928;2024-01-30T10:58:15;26.02;;;7.57;;
59474;SDS011;45288;51.136;16.928;2024-01-30T11:00:51;21.67;;;6.90;;
59474;SDS011;45288;51.136;16.928;2024-01-30T11:03:45;25.85;;;7.55;;
59474;SDS011;45288;51.136;16.928;2024-01-30T11:06:17;24.63;;;7.70;;
59474;SDS011;45288;51.136;16.928;2024-01-30T11:09:12;21.70;;;7.47;;
59474;SDS011;45288;51.136;16.928;2024-01-30T11:11:56;23.73;;;7.55;;
59474;SDS011;45288;51.136;16.928;2024-01-30T11:15:04;19.40;;;6.80;;
59474;SDS011;45288;51.136;16.928;2024-01-30T11:17:45;25.40;;;7.82;;
59474;SDS011;45288;51.136;16.928;2024-01-30T11:20:40;21.75;;;7.03;;
59474;SDS011;45288;51.136;16.928;2024-01-30T11:23:21;24.85;;;7.50;;
59474;SDS011;45288;51.136;16.928;2024-01-30T11:26:15;23.27;;;7.60;;
59474;SDS011;45288;51.136;16.928;2024-01-30T11:28:52;30.42;;;7.72;;
59474;SDS011;45288;51.136;16.928;2024-01-30T11:31:57;30.67;;;8.35;;
59474;SDS011;45288;51.136;16.928;2024-01-30T11:34:51;22.15;;;7.40;;
59474;SDS011;45288;51.136;16.928;2024-01-30T11:37:24;27.02;;;7.90;;
59474;SDS011;45288;51.136;16.928;2024-01-30T11:40:19;29.05;;;8.13;;
59474;SDS011;45288;51.136;16.928;2024-01-30T11:42:51;28.08;;;7.60;;
59474;SDS011;45288;51.136;16.928;2024-01-30T11:45:45;33.08;;;9.13;;
59474;SDS011;45288;51.136;16.928;2024-01-30T11:48:18;23.10;;;7.72;;
59474;SDS011;45288;51.136;16.928;2024-01-30T11:51:12;20.27;;;7.10;;
59474;SDS011;45288;51.136;16.928;2024-01-30T11:53:49;21.42;;;7.55;;
59474;SDS011;45288;51.136;16.928;2024-01-30T11:56:43;31.33;;;8.32;;
59474;SDS011;45288;51.136;16.928;2024-01-30T11:59:15;30.73;;;8.60;;
59474;SDS011;45288;51.136;16.928;2024-01-30T12:02:15;28.83;;;7.82;;
59474;SDS011;45288;51.136;16.928;2024-01-30T12:04:49;31.70;;;8.27;;
59474;SDS011;45288;51.136;16.928;2024-01-30T12:07:45;36.78;;;9.38;;
59474;SDS011;45288;51.136;16.928;2024-01-30T12:10:18;35.40;;;8.67;;
59474;SDS011;45288;51.136;16.928;2024-01-30T12:13:11;40.85;;;10.05;;
59474;SDS011;45288;51.136;16.928;2024-01-30T12:15:47;32.63;;;8.68;;
59474;SDS011;45288;51.136;16.928;2024-01-30T12:18:41;36.05;;;9.30;;
59474;SDS011;45288;51.136;16.928;2024-01-30T12:21:20;30.42;;;8.30;;
59474;SDS011;45288;51.136;16.928;2024-01-30T12:24:06;30.07;;;8.50;;
59474;SDS011;45288;51.136;16.928;2024-01-30T12:26:45;32.40;;;8.90;;
59474;SDS011;45288;51.136;16.928;2024-01-30T12:29:33;31.52;;;8.88;;
59474;SDS011;45288;51.136;16.928;2024-01-30T12:32:19;29.88;;;8.05;;
59474;SDS011;45288;51.136;16.928;2024-01-30T12:35:30;37.72;;;9.90;;
59474;SDS011;45288;51.136;16.928;2024-01-30T12:38:24;40.53;;;10.27;;
59474;SDS011;45288;51.136;16.928;2024-01-30T12:40:57;33.40;;;9.10;;
59474;SDS011;45288;51.136;16.928;2024-01-30T12:43:51;31.70;;;8.82;;
59474;SDS011;45288;51.136;16.928;2024-01-30T12:46:27;33.20;;;8.68;;
59474;SDS011;45288;51.136;16.928;2024-01-30T12:49:22;26.83;;;7.82;;
59474;SDS011;45288;51.136;16.928;2024-01-30T12:51:58;31.33;;;9.10;;
59474;SDS011;45288;51.136;16.928;2024-01-30T12:54:51;28.90;;;8.25;;
59474;SDS011;45288;51.136;16.928;2024-01-30T12:57:27;35.33;;;9.30;;
59474;SDS011;45288;51.136;16.928;2024-01-30T13:00:21;42.83;;;10.45;;
59474;SDS011;45288;51.136;16.928;2024-01-30T13:02:55;27.43;;;8.17;;
59474;SDS011;45288;51.136;16.928;2024-01-30T13:05:48;31.90;;;8.70;;
59474;SDS011;45288;51.136;16.928;2024-01-30T13:08:21;29.88;;;8.40;;
59474;SDS011;45288;51.136;16.928;2024-01-30T13:11:14;27.08;;;7.80;;
59474;SDS011;45288;51.136;16.928;2024-01-30T13:13:46;29.00;;;8.38;;
59474;SDS011;45288;51.136;16.928;2024-01-30T13:16:39;36.28;;;9.13;;
59474;SDS011;45288;51.136;16.928;2024-01-30T13:19:14;30.17;;;8.63;;
59474;SDS011;45288;51.136;16.928;2024-01-30T13:22:08;29.27;;;8.48;;
59474;SDS011;45288;51.136;16.928;2024-01-30T13:24:43;31.73;;;8.65;;
59474;SDS011;45288;51.136;16.928;2024-01-30T13:27:37;37.05;;;9.95;;
59474;SDS011;45288;51.136;16.928;2024-01-30T13:30:13;31.13;;;9.48;;
59474;SDS011;45288;51.136;16.928;2024-01-30T13:33:05;41.57;;;9.80;;
59474;SDS011;45288;51.136;16.928;2024-01-30T13:36:00;41.97;;;10.25;;
59474;SDS011;45288;51.136;16.928;2024-01-30T13:38:33;35.50;;;9.82;;
59474;SDS011;45288;51.136;16.928;2024-01-30T13:41:25;40.35;;;9.85;;
59474;SDS011;45288;51.136;16.928;2024-01-30T13:43:58;38.70;;;10.18;;
59474;SDS011;45288;51.136;16.928;2024-01-30T13:46:50;37.97;;;9.88;;
59474;SDS011;45288;51.136;16.928;2024-01-30T13:49:23;40.15;;;10.38;;
59474;SDS011;45288;51.136;16.928;2024-01-30T13:52:15;34.30;;;9.13;;
59474;SDS011;45288;51.136;16.928;2024-01-30T13:54:47;39.50;;;9.45;;
59474;SDS011;45288;51.136;16.928;2024-01-30T13:57:40;35.13;;;10.57;;
59474;SDS011;45288;51.136;16.928;2024-01-30T14:00:14;34.60;;;9.77;;
59474;SDS011;45288;51.136;16.928;2024-01-30T14:03:10;36.92;;;9.77;;
59474;SDS011;45288;51.136;16.928;2024-01-30T14:05:43;37.38;;;10.77;;
59474;SDS011;45288;51.136;16.928;2024-01-30T14:08:35;37.40;;;10.20;;
59474;SDS011;45288;51.136;16.928;2024-01-30T14:11:07;41.38;;;10.82;;
59474;SDS011;45288;51.136;16.928;2024-01-30T14:14:02;34.33;;;10.13;;
59474;SDS011;45288;51.136;16.928;2024-01-30T14:16:45;37.80;;;9.90;;
59474;SDS011;45288;51.136;16.928;2024-01-30T14:19:42;33.67;;;9.98;;
59474;SDS011;45288;51.136;16.928;2024-01-30T14:22:21;45.65;;;12.63;;
59474;SDS011;45288;51.136;16.928;2024-01-30T14:25:07;33.50;;;10.23;;
59474;SDS011;45288;51.136;16.928;2024-01-30T14:27:46;36.73;;;10.70;;
59474;SDS011;45288;51.136;16.928;2024-01-30T14:30:32;37.47;;;12.07;;
59474;SDS011;45288;51.136;16.928;2024-01-30T14:33:11;36.08;;;12.98;;
59474;SDS011;45288;51.136;16.928;2024-01-30T14:35:59;36.92;;;12.40;;
59474;SDS011;45288;51.136;16.928;2024-01-30T14:38:39;34.35;;;11.93;;
59474;SDS011;45288;51.136;16.928;2024-01-30T14:41:31;35.75;;;12.25;;
59474;SDS011;45288;51.136;16.928;2024-01-30T14:44:05;39.03;;;12.32;;
59474;SDS011;45288;51.136;16.928;2024-01-30T14:47:00;38.25;;;13.27;;
59474;SDS011;45288;51.136;16.928;2024-01-30T14:49:32;39.65;;;13.18;;
59474;SDS011;45288;51.136;16.928;2024-01-30T14:52:29;42.10;;;12.73;;
59474;SDS011;45288;51.136;16.928;2024-01-30T14:55:03;43.47;;;14.00;;
59474;SDS011;45288;51.136;16.928;2024-01-30T14:57:56;47.93;;;15.03;;
59474;SDS011;45288;51.136;16.928;2024-01-30T15:00:32;54.63;;;17.98;;
59474;SDS011;45288;51.136;16.928;2024-01-30T15:03:29;54.63;;;18.77;;
59474;SDS011;45288;51.136;16.928;2024-01-30T15:06:02;58.60;;;20.50;;
59474;SDS011;45288;51.136;16.928;2024-01-30T15:08:54;59.78;;;20.35;;
59474;SDS011;45288;51.136;16.928;2024-01-30T15:11:27;65.00;;;21.85;;
59474;SDS011;45288;51.136;16.928;2024-01-30T15:14:20;61.22;;;20.40;;
59474;SDS011;45288;51.136;16.928;2024-01-30T15:16:53;57.40;;;20.80;;
59474;SDS011;45288;51.136;16.928;2024-01-30T15:19:47;59.28;;;20.38;;
59474;SDS011;45288;51.136;16.928;2024-01-30T15:22:21;52.17;;;20.70;;
59474;SDS011;45288;51.136;16.928;2024-01-30T15:25:14;50.80;;;20.00;;
59474;SDS011;45288;51.136;16.928;2024-01-30T15:27:47;50.95;;;19.20;;
59474;SDS011;45288;51.136;16.928;2024-01-30T15:30:40;52.40;;;19.20;;
59474;SDS011;45288;51.136;16.928;2024-01-30T15:33:15;54.95;;;19.75;;
59474;SDS011;45288;51.136;16.928;2024-01-30T15:36:07;55.58;;;19.83;;
59474;SDS011;45288;51.136;16.928;2024-01-30T15:38:41;53.10;;;20.52;;
59474;SDS011;45288;51.136;16.928;2024-01-30T15:41:34;52.20;;;19.42;;
59474;SDS011;45288;51.136;16.928;2024-01-30T15:44:08;44.08;;;18.38;;
59474;SDS011;45288;51.136;16.928;2024-01-30T15:47:01;46.15;;;17.38;;
59474;SDS011;45288;51.136;16.928;2024-01-30T15:49:34;46.58;;;17.05;;